createdAt,value
2023-04-20T00:00:12.914Z,10.68
2023-04-20T00:01:13.294Z,5.68
2023-04-20T00:02:13.588Z,5.56
2023-04-20T00:03:13.790Z,23.28
2023-04-20T00:04:12.943Z,13.12
2023-04-20T00:05:12.988Z,25.88
2023-04-20T00:06:13.152Z,16.84
2023-04-20T00:07:13.250Z,30.12
2023-04-20T00:08:13.409Z,20.60
2023-04-20T00:09:13.548Z,7.80
2023-04-20T00:10:13.860Z,8.00
2023-04-20T00:11:13.952Z,12.20
2023-04-20T00:12:13.206Z,15.72
2023-04-20T00:13:13.293Z,17.32
2023-04-20T00:14:13.168Z,17.72
2023-04-20T00:15:13.328Z,21.48
2023-04-20T00:16:13.255Z,16.24
2023-04-20T00:17:13.217Z,16.64
2023-04-20T00:18:13.229Z,14.00
2023-04-20T00:19:13.600Z,6.76
2023-04-20T00:20:13.569Z,8.00
2023-04-20T00:21:13.783Z,26.00
2023-04-20T00:22:13.664Z,19.00
2023-04-20T00:23:13.834Z,14.36
2023-04-20T00:24:13.937Z,8.28
2023-04-20T00:25:12.815Z,11.80
2023-04-20T00:26:13.809Z,3.72
2023-04-20T00:27:13.851Z,13.80
2023-04-20T00:28:13.786Z,15.56
2023-04-20T00:29:13.888Z,13.88
2023-04-20T00:30:13.127Z,11.60
2023-04-20T00:31:13.368Z,10.88
2023-04-20T00:32:13.308Z,14.56
2023-04-20T00:33:13.274Z,22.76
2023-04-20T00:34:13.434Z,13.20
2023-04-20T00:35:13.609Z,11.84
2023-04-20T00:36:13.426Z,14.20
2023-04-20T00:37:13.638Z,18.20
2023-04-20T00:38:13.517Z,15.64
2023-04-20T00:39:13.536Z,15.52
2023-04-20T00:40:13.544Z,16.36
2023-04-20T00:41:13.472Z,8.00
2023-04-20T00:42:13.785Z,10.88
2023-04-20T00:43:13.651Z,8.48
2023-04-20T00:44:13.643Z,8.04
2023-04-20T00:45:13.522Z,5.12
2023-04-20T00:46:13.633Z,10.68
2023-04-20T00:47:14.026Z,12.48
2023-04-20T00:48:12.937Z,8.96
2023-04-20T00:49:12.922Z,9.60
2023-04-20T00:50:13.192Z,10.16
2023-04-20T00:51:13.363Z,11.16
2023-04-20T00:52:13.263Z,8.60
2023-04-20T00:53:13.330Z,12.92
2023-04-20T00:54:13.788Z,6.24
2023-04-20T00:55:13.847Z,9.52
2023-04-20T00:56:13.720Z,8.84
2023-04-20T00:57:14.009Z,3.68
2023-04-20T00:58:12.962Z,7.00
2023-04-20T00:59:13.280Z,7.80
2023-04-20T01:00:13.196Z,7.88
2023-04-20T01:01:13.112Z,4.84
2023-04-20T01:02:13.128Z,5.84
2023-04-20T01:03:13.411Z,8.40
2023-04-20T01:04:13.681Z,6.00
2023-04-20T01:05:13.790Z,5.96
2023-04-20T01:06:13.658Z,17.56
2023-04-20T01:07:13.540Z,9.36
2023-04-20T01:08:13.554Z,5.28
2023-04-20T01:09:13.686Z,15.80
2023-04-20T01:10:13.540Z,13.04
2023-04-20T01:11:13.816Z,13.48
2023-04-20T01:12:13.702Z,12.40
2023-04-20T01:13:13.828Z,10.44
2023-04-20T01:14:13.983Z,8.52
2023-04-20T01:15:12.818Z,6.56
2023-04-20T01:16:13.916Z,12.32
2023-04-20T01:17:12.990Z,15.33
2023-04-20T01:18:12.933Z,9.46
2023-04-20T01:19:13.072Z,12.96
2023-04-20T01:20:13.156Z,13.40
2023-04-20T01:21:13.284Z,11.60
2023-04-20T01:22:14.004Z,6.60
2023-04-20T01:23:12.954Z,9.48
2023-04-20T01:24:13.017Z,8.96
2023-04-20T01:25:13.033Z,11.08
2023-04-20T01:26:13.078Z,7.76
2023-04-20T01:27:13.228Z,9.04
2023-04-20T01:28:13.324Z,12.04
2023-04-20T01:29:13.831Z,9.84
2023-04-20T01:30:13.671Z,13.72
2023-04-20T01:31:13.818Z,9.80
2023-04-20T01:32:13.719Z,14.20
2023-04-20T01:33:13.571Z,10.68
2023-04-20T01:34:13.447Z,7.24
2023-04-20T01:35:13.419Z,6.44
2023-04-20T01:36:13.471Z,6.80
2023-04-20T01:37:13.442Z,7.84
2023-04-20T01:38:13.319Z,7.88
2023-04-20T01:39:13.392Z,3.72
2023-04-20T01:40:13.354Z,2.16
2023-04-20T01:41:13.147Z,2.96
2023-04-20T01:42:13.489Z,6.76
2023-04-20T01:43:13.869Z,9.60
2023-04-20T01:44:13.776Z,5.16
2023-04-20T01:45:13.724Z,10.20
2023-04-20T01:46:13.621Z,10.68
2023-04-20T01:47:13.687Z,11.52
2023-04-20T01:48:14.040Z,10.24
2023-04-20T01:49:13.102Z,5.64
2023-04-20T01:50:12.994Z,11.68
2023-04-20T01:51:13.168Z,8.64
2023-04-20T01:52:13.580Z,5.32
2023-04-20T01:53:13.490Z,8.64
2023-04-20T01:54:13.532Z,7.76
2023-04-20T01:55:13.396Z,13.68
2023-04-20T01:56:13.410Z,9.04
2023-04-20T01:57:13.237Z,6.16
2023-04-20T01:58:13.394Z,12.68
2023-04-20T01:59:13.699Z,15.28
2023-04-20T02:00:13.763Z,13.52
2023-04-20T02:01:13.799Z,7.60
2023-04-20T02:02:13.806Z,4.32
2023-04-20T02:03:14.269Z,8.60
2023-04-20T02:04:13.338Z,11.36
2023-04-20T02:05:13.378Z,8.72
2023-04-20T02:06:13.561Z,10.76
2023-04-20T02:07:14.213Z,12.40
2023-04-20T02:08:13.606Z,8.48
2023-04-20T02:09:13.515Z,17.00
2023-04-20T02:10:13.773Z,13.96
2023-04-20T02:11:14.129Z,24.64
2023-04-20T02:12:13.387Z,21.56
2023-04-20T02:13:13.588Z,13.60
2023-04-20T02:14:13.500Z,13.28
2023-04-20T02:15:13.938Z,12.20
2023-04-20T02:16:12.807Z,16.24
2023-04-20T02:17:13.768Z,11.04
2023-04-20T02:18:13.615Z,21.00
2023-04-20T02:19:13.548Z,17.32
2023-04-20T02:20:13.428Z,17.48
2023-04-20T02:21:13.337Z,16.72
2023-04-20T02:22:13.353Z,8.04
2023-04-20T02:23:13.268Z,18.40
2023-04-20T02:24:13.198Z,12.92
2023-04-20T02:25:13.105Z,16.24
2023-04-20T02:26:13.036Z,20.92
2023-04-20T02:27:12.910Z,22.32
2023-04-20T02:28:12.729Z,11.48
2023-04-20T02:29:13.791Z,14.88
2023-04-20T02:30:13.665Z,29.32
2023-04-20T02:31:13.736Z,27.96
2023-04-20T02:32:13.915Z,21.00
2023-04-20T02:33:12.834Z,15.12
2023-04-20T02:34:13.716Z,13.76
2023-04-20T02:35:13.921Z,23.24
2023-04-20T02:36:12.804Z,26.36
2023-04-20T02:37:13.866Z,26.08
2023-04-20T02:38:12.765Z,9.28
2023-04-20T02:39:13.688Z,12.60
2023-04-20T02:40:13.826Z,15.96
2023-04-20T02:41:13.853Z,18.88
2023-04-20T02:42:13.801Z,20.12
2023-04-20T02:43:13.706Z,15.88
2023-04-20T02:44:13.581Z,16.36
2023-04-20T02:45:13.501Z,7.80
2023-04-20T02:46:13.430Z,10.00
2023-04-20T02:47:13.328Z,15.24
2023-04-20T02:48:13.337Z,21.32
2023-04-20T02:49:13.240Z,18.84
2023-04-20T02:50:13.133Z,17.88
2023-04-20T02:51:13.281Z,35.60
2023-04-20T02:52:13.967Z,15.24
2023-04-20T02:53:12.950Z,19.64
2023-04-20T02:54:12.880Z,16.64
2023-04-20T02:55:13.810Z,22.96
2023-04-20T02:56:13.918Z,20.48
2023-04-20T02:57:12.941Z,14.00
2023-04-20T02:58:12.802Z,15.64
2023-04-20T02:59:14.122Z,25.92
2023-04-20T03:00:14.300Z,24.92
2023-04-20T03:01:13.411Z,22.92
2023-04-20T03:02:13.508Z,6.24
2023-04-20T03:03:14.064Z,16.08
2023-04-20T03:04:13.412Z,15.84
2023-04-20T03:05:13.602Z,15.68
2023-04-20T03:06:13.846Z,12.68
2023-04-20T03:07:16.398Z,23.48
2023-04-20T03:08:13.460Z,25.84
2023-04-20T03:09:13.377Z,16.16
2023-04-20T03:10:13.299Z,20.52
2023-04-20T03:11:13.501Z,29.64
2023-04-20T03:12:13.683Z,23.72
2023-04-20T03:13:14.832Z,25.72
2023-04-20T03:14:13.888Z,13.60
2023-04-20T03:15:12.814Z,11.48
2023-04-20T03:16:13.770Z,23.88
2023-04-20T03:17:13.831Z,20.88
2023-04-20T03:18:13.850Z,21.32
2023-04-20T03:19:13.875Z,11.44
2023-04-20T03:20:13.902Z,10.56
2023-04-20T03:21:13.034Z,10.68
2023-04-20T03:22:12.862Z,22.40
2023-04-20T03:23:13.858Z,13.08
2023-04-20T03:24:13.963Z,22.48
2023-04-20T03:25:13.176Z,14.16
2023-04-20T03:26:13.124Z,9.72
2023-04-20T03:27:13.053Z,6.72
2023-04-20T03:28:12.933Z,3.56
2023-04-20T03:29:12.930Z,12.48
2023-04-20T03:30:12.887Z,14.08
2023-04-20T03:31:13.074Z,16.36
2023-04-20T03:32:13.365Z,12.24
2023-04-20T03:33:13.350Z,11.00
2023-04-20T03:34:13.520Z,8.24
2023-04-20T03:35:13.728Z,16.64
2023-04-20T03:36:13.664Z,13.16
2023-04-20T03:37:13.641Z,5.12
2023-04-20T03:38:14.171Z,6.04
2023-04-20T03:39:13.165Z,10.44
2023-04-20T03:40:13.257Z,12.28
2023-04-20T03:41:13.964Z,12.92
2023-04-20T03:42:12.883Z,6.04
2023-04-20T03:43:12.912Z,10.56
2023-04-20T03:44:13.288Z,6.08
2023-04-20T03:45:13.249Z,8.36
2023-04-20T03:46:13.345Z,21.92
2023-04-20T03:47:13.258Z,10.40
2023-04-20T03:48:13.519Z,12.48
2023-04-20T03:49:13.480Z,12.08
2023-04-20T03:50:13.497Z,7.88
2023-04-20T03:51:13.321Z,8.96
2023-04-20T03:52:13.191Z,10.76
2023-04-20T03:53:13.107Z,8.64
2023-04-20T03:54:13.038Z,8.88
2023-04-20T03:55:18.090Z,6.72
2023-04-20T03:56:13.201Z,21.36
2023-04-20T03:57:13.183Z,18.44
2023-04-20T03:58:13.063Z,13.88
2023-04-20T03:59:13.014Z,13.44
2023-04-20T04:00:12.993Z,12.12
2023-04-20T04:01:12.991Z,19.32
2023-04-20T04:02:13.247Z,16.96
2023-04-20T04:03:13.637Z,17.08
2023-04-20T04:04:14.670Z,19.36
2023-04-20T04:05:13.931Z,13.12
2023-04-20T04:06:12.878Z,11.12
2023-04-20T04:07:13.967Z,16.72
2023-04-20T04:08:13.203Z,10.16
2023-04-20T04:09:13.410Z,13.72
2023-04-20T04:10:13.590Z,12.00
2023-04-20T04:11:13.482Z,8.32
2023-04-20T04:12:13.441Z,13.32
2023-04-20T04:13:13.312Z,8.76
2023-04-20T04:14:13.168Z,8.60
2023-04-20T04:15:13.206Z,3.12
2023-04-20T04:16:13.916Z,4.64
2023-04-20T04:17:13.073Z,4.40
2023-04-20T04:18:13.507Z,10.80
2023-04-20T04:19:13.419Z,7.28
2023-04-20T04:20:13.333Z,11.60
2023-04-20T04:21:13.282Z,14.32
2023-04-20T04:22:13.310Z,15.92
2023-04-20T04:23:13.312Z,6.68
2023-04-20T04:24:13.334Z,15.88
2023-04-20T04:25:13.484Z,8.24
2023-04-20T04:26:13.540Z,7.68
2023-04-20T04:27:13.719Z,5.12
2023-04-20T04:28:13.969Z,9.56
2023-04-20T04:29:40.741Z,4.08
2023-04-20T04:30:13.861Z,1.20
2023-04-20T04:31:14.262Z,1.68
2023-04-20T04:32:13.585Z,10.68
2023-04-20T04:33:13.763Z,11.92
2023-04-20T04:34:13.717Z,10.12
2023-04-20T04:35:13.701Z,9.08
2023-04-20T04:36:13.903Z,15.00
2023-04-20T04:37:13.300Z,14.88
2023-04-20T04:38:13.485Z,6.84
2023-04-20T04:39:13.428Z,9.56
2023-04-20T04:40:13.475Z,11.80
2023-04-20T04:41:19.024Z,9.72
2023-04-20T04:42:13.322Z,14.48
2023-04-20T04:43:13.511Z,20.08
2023-04-20T04:44:13.883Z,13.28
2023-04-20T04:45:13.366Z,20.28
2023-04-20T04:46:13.716Z,15.12
2023-04-20T04:47:18.899Z,20.80
2023-04-20T04:48:13.278Z,8.80
2023-04-20T04:49:13.317Z,6.40
2023-04-20T04:50:13.286Z,13.80
2023-04-20T04:51:13.216Z,24.60
2023-04-20T04:52:13.373Z,18.48
2023-04-20T04:53:13.771Z,9.72
2023-04-20T04:54:19.955Z,19.08
2023-04-20T04:55:14.946Z,17.52
2023-04-20T04:56:13.533Z,13.96
2023-04-20T04:57:13.416Z,10.12
2023-04-20T04:58:13.832Z,8.72
2023-04-20T04:59:13.824Z,12.20
2023-04-20T05:00:13.922Z,14.64
2023-04-20T05:01:13.244Z,13.92
2023-04-20T05:02:13.220Z,21.28
2023-04-20T05:03:13.891Z,10.80
2023-04-20T05:04:13.224Z,16.84
2023-04-20T05:05:13.898Z,11.76
2023-04-20T05:06:13.091Z,8.44
2023-04-20T05:07:13.149Z,18.40
2023-04-20T05:08:13.645Z,16.76
2023-04-20T05:09:13.988Z,15.92
2023-04-20T05:10:15.102Z,16.76
2023-04-20T05:11:13.478Z,12.16
2023-04-20T05:12:13.535Z,24.20
2023-04-20T05:13:13.660Z,18.96
2023-04-20T05:14:13.551Z,19.48
2023-04-20T05:15:13.558Z,11.20
2023-04-20T05:16:13.927Z,5.84
2023-04-20T05:17:13.133Z,17.28
2023-04-20T05:18:13.013Z,25.60
2023-04-20T05:19:12.861Z,32.12
2023-04-20T05:20:13.944Z,24.00
2023-04-20T05:21:12.922Z,15.80
2023-04-20T05:22:12.927Z,28.88
2023-04-20T05:23:12.817Z,18.72
2023-04-20T05:24:14.387Z,24.08
2023-04-20T05:25:24.577Z,25.80
2023-04-20T05:26:13.772Z,11.76
2023-04-20T05:27:18.894Z,18.82
2023-04-20T05:28:12.877Z,16.44
2023-04-20T05:29:12.837Z,20.84
2023-04-20T05:30:20.268Z,29.20
2023-04-20T05:31:13.286Z,25.88
2023-04-20T05:32:13.397Z,25.00
2023-04-20T05:33:13.550Z,8.80
2023-04-20T05:34:13.572Z,13.28
2023-04-20T05:35:13.522Z,10.44
2023-04-20T05:36:13.698Z,12.84
2023-04-20T05:37:13.651Z,9.24
2023-04-20T05:38:13.691Z,13.96
2023-04-20T05:39:13.817Z,21.36
2023-04-20T05:40:13.914Z,12.52
2023-04-20T05:41:13.101Z,11.44
2023-04-20T05:42:13.305Z,13.60
2023-04-20T05:43:13.362Z,10.72
2023-04-20T05:44:13.355Z,12.92
2023-04-20T05:45:13.437Z,25.04
2023-04-20T05:46:13.411Z,23.20
2023-04-20T05:47:14.159Z,9.76
2023-04-20T05:48:13.372Z,9.36
2023-04-20T05:49:13.368Z,5.44
2023-04-20T05:50:13.315Z,11.52
2023-04-20T05:51:13.402Z,14.85
2023-04-20T05:52:13.298Z,9.36
2023-04-20T05:53:13.424Z,9.52
2023-04-20T05:54:13.377Z,5.56
2023-04-20T05:55:14.451Z,8.80
2023-04-20T05:56:13.367Z,8.20
2023-04-20T05:57:13.490Z,12.76
2023-04-20T05:58:13.407Z,16.88
2023-04-20T05:59:13.264Z,22.12
2023-04-20T06:00:13.322Z,11.32
2023-04-20T06:01:13.221Z,10.44
2023-04-20T06:02:13.719Z,3.00
2023-04-20T06:03:14.123Z,14.36
2023-04-20T06:04:13.682Z,8.44
2023-04-20T06:05:13.832Z,6.48
2023-04-20T06:06:16.106Z,6.28
2023-04-20T06:07:13.890Z,18.68
2023-04-20T06:08:13.010Z,10.92
2023-04-20T06:09:12.987Z,8.44
2023-04-20T06:10:13.079Z,7.28
2023-04-20T06:11:13.289Z,4.80
2023-04-20T06:12:13.636Z,2.80
2023-04-20T06:13:13.504Z,6.32
2023-04-20T06:14:13.514Z,6.64
2023-04-20T06:15:13.654Z,12.64
2023-04-20T06:16:13.766Z,3.80
2023-04-20T06:17:13.901Z,5.88
2023-04-20T06:18:13.580Z,7.28
2023-04-20T06:19:13.606Z,3.72
2023-04-20T06:20:13.846Z,7.48
2023-04-20T06:21:13.879Z,9.20
2023-04-20T06:22:12.700Z,12.24
2023-04-20T06:23:14.061Z,8.48
2023-04-20T06:24:13.269Z,8.56
2023-04-20T06:25:13.265Z,12.84
2023-04-20T06:26:13.390Z,7.08
2023-04-20T06:27:13.555Z,16.96
2023-04-20T06:28:13.581Z,11.52
2023-04-20T06:29:13.628Z,8.92
2023-04-20T06:30:13.777Z,9.28
2023-04-20T06:31:13.919Z,12.76
2023-04-20T06:32:12.908Z,5.16
2023-04-20T06:33:13.344Z,8.80
2023-04-20T06:34:13.269Z,17.16
2023-04-20T06:35:13.308Z,12.20
2023-04-20T06:36:13.446Z,5.76
2023-04-20T06:37:13.964Z,5.64
2023-04-20T06:38:12.962Z,5.68
2023-04-20T06:39:13.062Z,8.20
2023-04-20T06:40:16.041Z,11.84
2023-04-20T06:41:13.311Z,14.04
2023-04-20T06:42:13.438Z,9.28
2023-04-20T06:43:13.465Z,15.20
2023-04-20T06:44:13.455Z,5.48
2023-04-20T06:45:13.579Z,5.60
2023-04-20T06:46:13.771Z,6.40
2023-04-20T06:47:13.892Z,7.88
2023-04-20T06:48:30.100Z,7.88
2023-04-20T06:49:13.104Z,8.48
2023-04-20T06:50:13.242Z,6.48
2023-04-20T06:51:13.078Z,16.56
2023-04-20T06:52:12.930Z,11.04
2023-04-20T06:53:12.886Z,6.52
2023-04-20T06:54:12.860Z,2.36
2023-04-20T06:55:13.934Z,1.08
2023-04-20T06:56:13.186Z,6.48
2023-04-20T06:57:18.291Z,8.92
2023-04-20T06:58:13.343Z,4.36
2023-04-20T06:59:13.637Z,2.04
2023-04-20T07:00:13.521Z,6.08
2023-04-20T07:01:13.800Z,6.40
2023-04-20T07:02:14.025Z,7.76
2023-04-20T07:03:18.541Z,8.92
2023-04-20T07:04:13.908Z,13.12
2023-04-20T07:05:12.867Z,23.52
2023-04-20T07:06:14.306Z,13.08
2023-04-20T07:07:13.709Z,3.80
2023-04-20T07:08:13.670Z,8.32
2023-04-20T07:09:13.631Z,8.84
2023-04-20T07:10:13.859Z,6.72
2023-04-20T07:11:12.839Z,12.56
2023-04-20T07:12:14.161Z,4.16
2023-04-20T07:13:13.135Z,6.36
2023-04-20T07:14:13.076Z,11.76
2023-04-20T07:15:13.124Z,23.92
2023-04-20T07:16:13.242Z,18.32
2023-04-20T07:17:13.186Z,21.12
2023-04-20T07:18:13.522Z,40.96
2023-04-20T07:19:13.886Z,22.04
2023-04-20T07:20:12.786Z,31.92
2023-04-20T07:21:13.649Z,33.60
2023-04-20T07:22:13.439Z,25.48
2023-04-20T07:23:13.477Z,16.20
2023-04-20T07:24:13.469Z,45.80
2023-04-20T07:25:13.441Z,27.12
2023-04-20T07:26:13.655Z,28.60
2023-04-20T07:27:13.723Z,38.08
2023-04-20T07:28:13.795Z,22.88
2023-04-20T07:29:13.896Z,10.36
2023-04-20T07:30:12.920Z,12.20
2023-04-20T07:31:12.994Z,10.64
2023-04-20T07:32:13.088Z,9.60
2023-04-20T07:33:13.315Z,10.60
2023-04-20T07:34:13.181Z,5.36
2023-04-20T07:35:13.093Z,11.92
2023-04-20T07:36:13.028Z,16.40
2023-04-20T07:37:13.063Z,7.44
2023-04-20T07:38:13.113Z,16.96
2023-04-20T07:39:13.074Z,21.80
2023-04-20T07:40:13.180Z,20.76
2023-04-20T07:41:13.541Z,21.40
2023-04-20T07:42:13.693Z,7.44
2023-04-20T07:43:18.954Z,21.52
2023-04-20T07:44:12.867Z,27.40
2023-04-20T07:45:13.700Z,25.00
2023-04-20T07:46:13.653Z,26.16
2023-04-20T07:47:14.009Z,19.00
2023-04-20T07:48:13.042Z,16.68
2023-04-20T07:49:12.974Z,23.76
2023-04-20T07:50:13.208Z,13.84
2023-04-20T07:51:13.519Z,24.24
2023-04-20T07:52:17.038Z,27.68
2023-04-20T07:53:13.658Z,12.88
2023-04-20T07:54:13.459Z,7.20
2023-04-20T07:55:13.646Z,15.60
2023-04-20T07:56:46.251Z,18.16
2023-04-20T07:57:13.551Z,43.52
2023-04-20T07:58:13.479Z,48.64
2023-04-20T07:59:13.832Z,20.36
2023-04-20T08:00:21.270Z,5.68
2023-04-20T08:01:13.586Z,20.24
2023-04-20T08:02:13.761Z,18.68
2023-04-20T08:03:13.997Z,31.00
2023-04-20T08:04:13.485Z,16.00
2023-04-20T08:05:14.004Z,21.40
2023-04-20T08:06:13.018Z,18.36
2023-04-20T08:07:12.855Z,30.68
2023-04-20T08:08:13.808Z,24.76
2023-04-20T08:09:13.782Z,34.36
2023-04-20T08:10:13.805Z,35.48
2023-04-20T08:11:13.703Z,41.64
2023-04-20T08:12:14.127Z,37.20
2023-04-20T08:13:13.433Z,24.36
2023-04-20T08:14:13.522Z,31.32
2023-04-20T08:15:13.512Z,41.12
2023-04-20T08:16:13.654Z,34.12
2023-04-20T08:17:13.476Z,33.08
2023-04-20T08:18:13.703Z,24.96
2023-04-20T08:20:13.710Z,16.20
2023-04-20T08:21:13.608Z,12.40
2023-04-20T08:22:13.722Z,19.56
2023-04-20T08:23:13.951Z,27.60
2023-04-20T08:24:13.037Z,29.64
2023-04-20T08:25:13.049Z,28.52
2023-04-20T08:26:12.923Z,22.72
2023-04-20T08:27:12.816Z,19.16
2023-04-20T08:28:24.333Z,14.56
2023-04-20T08:29:13.924Z,16.96
2023-04-20T08:30:12.963Z,24.32
2023-04-20T08:31:12.901Z,11.88
2023-04-20T08:32:13.122Z,21.60
2023-04-20T08:33:13.395Z,17.80
2023-04-20T08:34:13.483Z,15.28
2023-04-20T08:35:13.793Z,26.88
2023-04-20T08:36:13.992Z,20.84
2023-04-20T08:37:12.925Z,15.84
2023-04-20T08:38:17.956Z,23.76
2023-04-20T08:39:13.246Z,14.80
2023-04-20T08:40:13.267Z,13.28
2023-04-20T08:41:13.212Z,24.12
2023-04-20T08:42:13.172Z,8.04
2023-04-20T08:43:13.209Z,14.60
2023-04-20T08:44:13.104Z,7.64
2023-04-20T08:45:13.046Z,12.36
2023-04-20T08:46:13.296Z,8.56
2023-04-20T08:47:13.403Z,11.16
2023-04-20T08:48:13.396Z,13.84
2023-04-20T08:49:13.314Z,11.96
2023-04-20T08:50:13.409Z,13.80
2023-04-20T08:51:13.433Z,6.56
2023-04-20T08:52:13.505Z,21.20
2023-04-20T08:53:13.794Z,15.48
2023-04-20T08:54:14.259Z,3.68
2023-04-20T08:55:13.670Z,13.24
2023-04-20T08:56:13.954Z,15.20
2023-04-20T08:57:14.114Z,27.20
2023-04-20T08:58:13.591Z,14.68
2023-04-20T08:59:13.547Z,14.80
2023-04-20T09:00:14.165Z,18.32
2023-04-20T09:01:17.553Z,7.52
2023-04-20T09:02:13.229Z,11.68
2023-04-20T09:03:13.398Z,24.80
2023-04-20T09:04:13.784Z,18.32
2023-04-20T09:05:12.823Z,24.12
2023-04-20T09:06:13.757Z,21.20
2023-04-20T09:07:13.673Z,23.12
2023-04-20T09:08:13.673Z,13.08
2023-04-20T09:09:13.539Z,24.92
2023-04-20T09:10:13.495Z,21.72
2023-04-20T09:11:13.366Z,25.32
2023-04-20T09:12:13.788Z,32.56
2023-04-20T09:13:14.002Z,20.60
2023-04-20T09:14:12.895Z,16.20
2023-04-20T09:15:12.770Z,16.56
2023-04-20T09:16:13.785Z,18.24
2023-04-20T09:17:13.875Z,30.44
2023-04-20T09:18:12.758Z,20.12
2023-04-20T09:19:14.056Z,6.20
2023-04-20T09:20:13.025Z,10.16
2023-04-20T09:21:12.883Z,13.16
2023-04-20T09:22:12.804Z,12.24
2023-04-20T09:23:13.682Z,12.48
2023-04-20T09:24:13.554Z,15.44
2023-04-20T09:25:13.446Z,14.16
2023-04-20T09:26:13.385Z,17.40
2023-04-20T09:27:13.308Z,28.00
2023-04-20T09:28:13.213Z,24.52
2023-04-20T09:29:13.091Z,27.04
2023-04-20T09:30:13.095Z,20.96
2023-04-20T09:31:15.025Z,19.88
2023-04-20T09:32:13.425Z,11.92
2023-04-20T09:33:13.723Z,21.81
2023-04-20T09:34:13.837Z,7.40
2023-04-20T09:35:12.828Z,16.68
2023-04-20T09:36:13.846Z,20.92
2023-04-20T09:37:13.928Z,34.84
2023-04-20T09:38:12.993Z,19.44
2023-04-20T09:39:12.921Z,25.00
2023-04-20T09:40:12.894Z,3.32
2023-04-20T09:41:12.875Z,14.81
2023-04-20T09:42:13.829Z,9.28
2023-04-20T09:43:15.295Z,14.52
2023-04-20T09:44:14.217Z,18.84
2023-04-20T09:45:13.348Z,20.54
2023-04-20T09:46:13.323Z,7.04
2023-04-20T09:47:13.614Z,17.16
2023-04-20T09:48:13.681Z,28.64
2023-04-20T09:49:13.572Z,21.92
2023-04-20T09:50:24.825Z,28.92
2023-04-20T09:51:13.402Z,14.80
2023-04-20T09:52:13.305Z,20.80
2023-04-20T09:53:13.342Z,21.80
2023-04-20T09:54:13.426Z,16.80
2023-04-20T09:55:13.395Z,9.92
2023-04-20T09:56:13.243Z,14.56
2023-04-20T09:57:13.193Z,7.24
2023-04-20T09:58:13.131Z,25.32
2023-04-20T09:59:13.125Z,15.12
2023-04-20T10:00:13.120Z,14.64
2023-04-20T10:01:13.270Z,18.44
2023-04-20T10:02:13.496Z,16.92
2023-04-20T10:03:13.718Z,25.44
2023-04-20T10:04:14.050Z,8.12
2023-04-20T10:05:13.384Z,3.24
2023-04-20T10:06:13.508Z,12.16
2023-04-20T10:07:13.503Z,10.88
2023-04-20T10:08:13.564Z,15.36
2023-04-20T10:09:13.509Z,22.52
2023-04-20T10:10:13.375Z,30.56
2023-04-20T10:11:13.401Z,21.72
2023-04-20T10:12:13.331Z,20.64
2023-04-20T10:13:13.275Z,23.04
2023-04-20T10:14:13.207Z,13.76
2023-04-20T10:15:13.193Z,18.76
2023-04-20T10:16:13.146Z,32.72
2023-04-20T10:17:13.321Z,25.16
2023-04-20T10:18:13.548Z,41.16
2023-04-20T10:19:13.640Z,33.12
2023-04-20T10:20:13.519Z,35.92
2023-04-20T10:21:13.442Z,36.72
2023-04-20T10:22:13.649Z,21.56
2023-04-20T10:23:13.674Z,39.44
2023-04-20T10:24:13.606Z,45.08
2023-04-20T10:25:13.765Z,35.40
2023-04-20T10:26:13.683Z,31.36
2023-04-20T10:27:13.668Z,21.48
2023-04-20T10:28:13.643Z,15.52
2023-04-20T10:29:13.703Z,9.32
2023-04-20T10:30:13.653Z,19.00
2023-04-20T10:31:14.054Z,11.72
2023-04-20T10:32:13.028Z,26.52
2023-04-20T10:33:13.223Z,33.60
2023-04-20T10:34:13.389Z,31.92
2023-04-20T10:35:13.347Z,14.04
2023-04-20T10:36:13.317Z,25.52
2023-04-20T10:37:13.227Z,17.04
2023-04-20T10:38:13.265Z,21.04
2023-04-20T10:39:13.159Z,11.56
2023-04-20T10:40:13.302Z,14.04
2023-04-20T10:41:13.549Z,6.48
2023-04-20T10:42:14.639Z,21.80
2023-04-20T10:43:13.022Z,24.04
2023-04-20T10:44:13.050Z,18.92
2023-04-20T10:45:13.021Z,17.40
2023-04-20T10:46:13.307Z,23.80
2023-04-20T10:47:13.159Z,47.40
2023-04-20T10:48:13.829Z,27.12
2023-04-20T10:49:14.029Z,37.00
2023-04-20T10:50:13.063Z,36.84
2023-04-20T10:51:13.084Z,21.44
2023-04-20T10:52:13.008Z,64.00
2023-04-20T10:53:12.943Z,61.48
2023-04-20T10:54:12.877Z,49.16
2023-04-20T10:55:14.197Z,24.72
2023-04-20T10:56:13.418Z,15.36
2023-04-20T10:57:13.709Z,23.04
2023-04-20T10:58:13.769Z,21.04
2023-04-20T10:59:14.036Z,18.28
2023-04-20T11:00:13.103Z,31.36
2023-04-20T11:01:12.977Z,30.84
2023-04-20T11:02:13.007Z,24.96
2023-04-20T11:03:13.111Z,17.24
2023-04-20T11:04:13.847Z,19.24
2023-04-20T11:05:13.191Z,24.56
2023-04-20T11:06:13.207Z,21.44
2023-04-20T11:07:13.579Z,11.04
2023-04-20T11:08:13.671Z,3.96
2023-04-20T11:09:13.487Z,7.80
2023-04-20T11:10:13.521Z,17.56
2023-04-20T11:11:13.317Z,19.88
2023-04-20T11:12:13.519Z,15.04
2023-04-20T11:13:13.652Z,16.28
2023-04-20T11:14:13.577Z,16.88
2023-04-20T11:15:14.807Z,15.16
2023-04-20T11:16:13.767Z,16.48
2023-04-20T11:17:13.749Z,28.48
2023-04-20T11:18:13.245Z,19.68
2023-04-20T11:19:13.175Z,14.64
2023-04-20T11:20:13.099Z,25.84
2023-04-20T11:21:13.256Z,21.48
2023-04-20T11:22:13.551Z,50.60
2023-04-20T11:23:13.675Z,45.80
2023-04-20T11:24:13.714Z,37.24
2023-04-20T11:25:13.840Z,42.04
2023-04-20T11:26:13.982Z,26.68
2023-04-20T11:27:12.969Z,24.44
2023-04-20T11:28:13.077Z,8.36
2023-04-20T11:29:13.158Z,12.28
2023-04-20T11:30:13.107Z,10.68
2023-04-20T11:31:13.013Z,21.80
2023-04-20T11:32:13.091Z,12.32
2023-04-20T11:33:13.360Z,16.84
2023-04-20T11:34:13.933Z,15.56
2023-04-20T11:35:12.871Z,34.44
2023-04-20T11:36:13.747Z,43.76
2023-04-20T11:37:13.705Z,62.64
2023-04-20T11:38:13.781Z,48.80
2023-04-20T11:39:13.701Z,35.04
2023-04-20T11:40:13.285Z,19.24
2023-04-20T11:41:13.292Z,26.16
2023-04-20T11:42:13.464Z,24.00
2023-04-20T11:43:13.276Z,15.96
2023-04-20T11:44:13.346Z,14.88
2023-04-20T11:45:13.275Z,21.44
2023-04-20T11:46:13.299Z,32.08
2023-04-20T11:47:13.248Z,26.48
2023-04-20T11:48:13.265Z,21.44
2023-04-20T11:49:13.709Z,8.68
2023-04-20T11:50:13.745Z,12.68
2023-04-20T11:51:13.690Z,4.92
2023-04-20T11:52:13.787Z,9.76
2023-04-20T11:53:14.153Z,30.68
2023-04-20T11:54:13.319Z,26.52
2023-04-20T11:55:13.339Z,24.32
2023-04-20T11:56:13.429Z,20.80
2023-04-20T11:57:13.305Z,19.88
2023-04-20T11:58:13.440Z,32.56
2023-04-20T11:59:13.255Z,39.60
2023-04-20T12:00:13.292Z,26.32
2023-04-20T12:01:13.556Z,17.68
2023-04-20T12:02:13.539Z,16.40
2023-04-20T12:03:13.870Z,17.16
2023-04-20T12:04:13.029Z,24.04
2023-04-20T12:05:13.686Z,15.44
2023-04-20T12:06:13.850Z,27.88
2023-04-20T12:07:13.842Z,34.76
2023-04-20T12:08:14.070Z,33.92
2023-04-20T12:09:13.027Z,15.56
2023-04-20T12:10:13.386Z,13.12
2023-04-20T12:11:13.581Z,39.56
2023-04-20T12:12:13.924Z,34.08
2023-04-20T12:13:12.856Z,28.28
2023-04-20T12:14:13.908Z,16.12
2023-04-20T12:15:12.753Z,13.40
2023-04-20T12:16:13.845Z,6.72
2023-04-20T12:17:13.952Z,4.00
2023-04-20T12:18:12.919Z,9.28
2023-04-20T12:19:12.768Z,7.72
2023-04-20T12:20:13.781Z,5.88
2023-04-20T12:21:13.751Z,6.96
2023-04-20T12:22:13.681Z,5.00
2023-04-20T12:23:13.519Z,7.44
2023-04-20T12:24:13.540Z,12.20
2023-04-20T12:25:13.529Z,7.36
2023-04-20T12:26:13.566Z,9.00
2023-04-20T12:27:13.467Z,12.72
2023-04-20T12:28:13.743Z,18.48
2023-04-20T12:29:13.813Z,8.64
2023-04-20T12:30:13.702Z,15.84
2023-04-20T12:31:13.866Z,21.16
2023-04-20T12:32:13.799Z,18.44
2023-04-20T12:33:13.698Z,47.48
2023-04-20T12:34:13.618Z,45.00
2023-04-20T12:35:13.653Z,43.52
2023-04-20T12:36:13.546Z,46.88
2023-04-20T12:37:13.929Z,29.60
2023-04-20T12:38:14.618Z,15.72
2023-04-20T12:39:13.816Z,35.24
2023-04-20T12:40:13.833Z,24.24
2023-04-20T12:41:13.928Z,40.72
2023-04-20T12:42:13.226Z,31.72
2023-04-20T12:43:13.534Z,42.04
2023-04-20T12:44:13.470Z,25.80
2023-04-20T12:45:13.648Z,20.36
2023-04-20T12:46:13.641Z,29.56
2023-04-20T12:47:13.869Z,23.44
2023-04-20T12:48:14.004Z,25.48
2023-04-20T12:49:13.269Z,26.88
2023-04-20T12:50:13.160Z,11.56
2023-04-20T12:51:13.327Z,35.36
2023-04-20T12:52:13.249Z,64.84
2023-04-20T12:53:13.363Z,14.88
2023-04-20T12:54:13.277Z,53.56
2023-04-20T12:55:13.169Z,24.60
2023-04-20T12:56:13.015Z,25.36
2023-04-20T12:57:13.079Z,23.76
2023-04-20T12:58:12.984Z,9.20
2023-04-20T12:59:12.832Z,40.68
2023-04-20T13:00:14.664Z,23.08